Time;durP1;ratioP1;P1;durP2;ratioP2;P2;SDS_P1;SDS_P2;PMS_P1;PMS_P2;Temp;Humidity;BMP_temperature;BMP_pressure;BME280_temperature;BME280_humidity;BME280_pressure;Samples;Min_cycle;Max_cycle;Signal;HPM_P1;HPM_P2
2024/01/21 00:00:30;;;;;;;5.70;3.60;;;;;;;;;;5060185;28;20819;-51
2024/01/21 00:02:57;;;;;;;4.40;3.77;;;;;;;;;;5060228;28;20491;-51
2024/01/21 00:05:23;;;;;;;4.33;3.63;;;;;;;;;;5060075;28;20222;-51
2024/01/21 00:07:49;;;;;;;5.13;3.70;;;;;;;;;;5060119;28;20852;-52
2024/01/21 00:10:17;;;;;;;4.40;3.47;;;;;;;;;;5060099;28;20198;-52
2024/01/21 00:12:43;;;;;;;5.10;3.77;;;;;;;;;;5058907;28;20470;-52
2024/01/21 00:15:09;;;;;;;4.23;3.83;;;;;;;;;;5061014;28;20434;-52
2024/01/21 00:17:35;;;;;;;4.07;3.23;;;;;;;;;;5059703;28;20239;-52
2024/01/21 00:20:03;;;;;;;6.23;3.77;;;;;;;;;;5059931;28;20477;-51
2024/01/21 00:22:29;;;;;;;3.93;3.43;;;;;;;;;;5059899;28;20487;-50
2024/01/21 00:24:55;;;;;;;6.03;3.97;;;;;;;;;;5064818;28;20434;-51
2024/01/21 00:27:21;;;;;;;6.37;4.60;;;;;;;;;;5073266;28;20850;-51
2024/01/21 00:29:47;;;;;;;5.33;4.20;;;;;;;;;;5073254;28;20441;-52
2024/01/21 00:32:13;;;;;;;5.40;4.70;;;;;;;;;;5073279;28;20196;-51
2024/01/21 00:34:39;;;;;;;6.60;5.00;;;;;;;;;;5073083;28;20199;-51
2024/01/21 00:37:07;;;;;;;5.17;4.43;;;;;;;;;;5073050;28;20434;-51
2024/01/21 00:39:33;;;;;;;6.03;4.90;;;;;;;;;;5072766;28;20850;-52
2024/01/21 00:41:59;;;;;;;7.83;5.27;;;;;;;;;;5073194;28;20483;-52
2024/01/21 00:44:25;;;;;;;6.00;4.50;;;;;;;;;;5072910;28;20805;-52
2024/01/21 00:46:51;;;;;;;7.40;5.43;;;;;;;;;;5072939;28;20434;-52
2024/01/21 00:49:17;;;;;;;5.87;4.53;;;;;;;;;;5072922;28;20216;-52
2024/01/21 00:51:43;;;;;;;6.33;4.60;;;;;;;;;;5073134;28;20876;-50
2024/01/21 00:54:11;;;;;;;7.00;5.40;;;;;;;;;;5072684;28;20532;-50
2024/01/21 00:56:37;;;;;;;5.87;4.73;;;;;;;;;;5072576;28;20195;-50
2024/01/21 00:59:03;;;;;;;6.70;4.90;;;;;;;;;;5072646;28;20527;-50
2024/01/21 01:01:29;;;;;;;6.27;4.50;;;;;;;;;;5072657;28;20196;-49
2024/01/21 01:03:55;;;;;;;7.60;5.17;;;;;;;;;;5072499;28;20723;-52
2024/01/21 01:06:21;;;;;;;6.03;4.83;;;;;;;;;;5072471;28;20426;-50
2024/01/21 01:08:47;;;;;;;7.83;5.23;;;;;;;;;;5072554;28;20241;-52
2024/01/21 01:11:14;;;;;;;7.13;5.17;;;;;;;;;;5072527;28;20434;-49
2024/01/21 01:13:41;;;;;;;6.87;4.90;;;;;;;;;;5072098;28;20461;-52
2024/01/21 01:16:07;;;;;;;8.67;5.40;;;;;;;;;;5072228;28;20461;-52
2024/01/21 01:18:33;;;;;;;7.20;5.50;;;;;;;;;;5072015;28;20867;-50
2024/01/21 01:20:59;;;;;;;7.47;5.57;;;;;;;;;;5068886;28;20770;-50
2024/01/21 01:23:25;;;;;;;7.60;5.63;;;;;;;;;;5058671;28;20460;-50
2024/01/21 01:25:51;;;;;;;8.47;5.63;;;;;;;;;;5056742;28;20210;-51
2024/01/21 01:28:18;;;;;;;9.37;5.97;;;;;;;;;;5057588;28;20684;-50
2024/01/21 01:30:44;;;;;;;6.83;5.80;;;;;;;;;;5058750;28;20430;-50
2024/01/21 01:33:10;;;;;;;10.97;6.10;;;;;;;;;;5058490;28;20806;-50
2024/01/21 01:35:36;;;;;;;8.10;5.80;;;;;;;;;;5058340;28;20438;-50
2024/01/21 01:38:02;;;;;;;7.13;5.27;;;;;;;;;;5058270;28;20199;-50
2024/01/21 01:40:28;;;;;;;7.90;5.67;;;;;;;;;;5057301;28;20315;-49
2024/01/21 01:42:58;;;;;;;7.90;6.13;;;;;;;;;;5058152;28;20437;-50
2024/01/21 01:45:25;;;;;;;6.70;5.47;;;;;;;;;;5058186;28;20436;-50
2024/01/21 01:47:51;;;;;;;8.50;5.67;;;;;;;;;;5058060;28;20456;-50
2024/01/21 01:50:18;;;;;;;7.60;5.43;;;;;;;;;;5058174;28;20433;-50
2024/01/21 01:52:44;;;;;;;7.07;5.47;;;;;;;;;;5069934;28;20440;-53
2024/01/21 01:55:10;;;;;;;6.50;5.30;;;;;;;;;;5071612;28;20438;-50
2024/01/21 01:57:37;;;;;;;7.63;5.40;;;;;;;;;;5071489;28;20487;-50
2024/01/21 02:00:06;;;;;;;6.63;5.23;;;;;;;;;;5071484;28;20528;-50
2024/01/21 02:02:33;;;;;;;7.80;5.37;;;;;;;;;;5071488;28;20433;-50
2024/01/21 02:05:01;;;;;;;6.17;4.67;;;;;;;;;;5071632;28;20549;-50
2024/01/21 02:07:27;;;;;;;7.17;4.87;;;;;;;;;;5071514;28;20442;-50
2024/01/21 02:09:53;;;;;;;7.80;4.33;;;;;;;;;;5071271;28;20833;-50
2024/01/21 02:12:19;;;;;;;5.57;5.00;;;;;;;;;;5071239;28;20881;-51
2024/01/21 02:14:44;;;;;;;5.97;4.47;;;;;;;;;;5071382;28;20227;-50
2024/01/21 02:17:10;;;;;;;6.03;4.83;;;;;;;;;;5071376;28;20234;-50
2024/01/21 02:19:38;;;;;;;5.93;4.70;;;;;;;;;;5071210;28;20577;-50
2024/01/21 02:22:04;;;;;;;7.17;4.83;;;;;;;;;;5071378;28;20771;-50
2024/01/21 02:24:33;;;;;;;5.47;4.27;;;;;;;;;;5062810;28;21115;-50
2024/01/21 02:26:59;;;;;;;7.07;4.67;;;;;;;;;;5056083;28;20211;-50
2024/01/21 02:29:25;;;;;;;6.10;4.77;;;;;;;;;;5059407;28;20493;-50
2024/01/21 02:31:51;;;;;;;6.10;4.17;;;;;;;;;;5055829;28;20960;-50
2024/01/21 02:34:17;;;;;;;6.03;4.50;;;;;;;;;;5057684;28;20445;-50
2024/01/21 02:36:43;;;;;;;5.17;4.20;;;;;;;;;;5057729;28;20426;-50
2024/01/21 02:39:09;;;;;;;5.33;4.60;;;;;;;;;;5059767;28;20480;-50
2024/01/21 02:41:36;;;;;;;5.03;4.30;;;;;;;;;;5059859;28;20426;-51
2024/01/21 02:44:03;;;;;;;5.80;4.17;;;;;;;;;;5061623;28;20453;-49
2024/01/21 02:46:29;;;;;;;5.30;4.10;;;;;;;;;;5062117;28;20983;-50
2024/01/21 02:48:55;;;;;;;6.93;4.10;;;;;;;;;;5061521;28;20491;-50
2024/01/21 02:51:21;;;;;;;5.20;4.00;;;;;;;;;;5061542;28;20245;-50
2024/01/21 02:53:47;;;;;;;5.37;4.03;;;;;;;;;;5061426;28;20944;-51
2024/01/21 02:56:20;;;;;;;4.97;3.93;;;;;;;;;;5061688;28;20191;-50
2024/01/21 02:58:48;;;;;;;5.17;3.97;;;;;;;;;;5059660;28;20473;-50
2024/01/21 03:01:13;;;;;;;5.47;3.73;;;;;;;;;;5061522;28;20434;-51
2024/01/21 03:03:39;;;;;;;4.47;3.83;;;;;;;;;;5061206;28;20940;-50
2024/01/21 03:06:05;;;;;;;5.33;3.83;;;;;;;;;;5061216;28;20210;-50
2024/01/21 03:08:31;;;;;;;5.50;4.03;;;;;;;;;;5059475;28;20219;-49
2024/01/21 03:10:57;;;;;;;4.73;3.70;;;;;;;;;;5061108;28;20485;-50
2024/01/21 03:13:23;;;;;;;5.73;3.90;;;;;;;;;;5060963;28;20240;-50
2024/01/21 03:15:51;;;;;;;5.50;3.50;;;;;;;;;;5060955;28;20195;-49
2024/01/21 03:18:17;;;;;;;3.70;3.30;;;;;;;;;;5060942;28;20288;-50
2024/01/21 03:20:43;;;;;;;4.77;3.47;;;;;;;;;;5059621;28;20995;-50
2024/01/21 03:23:09;;;;;;;4.13;3.47;;;;;;;;;;5060911;28;20274;-49
2024/01/21 03:25:35;;;;;;;4.10;2.93;;;;;;;;;;5060744;28;20211;-50
2024/01/21 03:28:01;;;;;;;3.87;3.20;;;;;;;;;;5060899;28;20502;-49
2024/01/21 03:30:27;;;;;;;3.73;2.97;;;;;;;;;;5060868;28;20282;-49
2024/01/21 03:32:54;;;;;;;3.93;3.50;;;;;;;;;;5060747;28;20267;-49
2024/01/21 03:35:20;;;;;;;3.67;3.00;;;;;;;;;;5060714;28;20521;-49
2024/01/21 03:37:46;;;;;;;3.90;3.33;;;;;;;;;;5060510;28;20433;-49
2024/01/21 03:40:12;;;;;;;3.43;3.13;;;;;;;;;;5060621;28;21018;-49
2024/01/21 03:42:38;;;;;;;5.93;3.30;;;;;;;;;;5060616;28;20200;-49
2024/01/21 03:45:05;;;;;;;5.23;3.50;;;;;;;;;;5060579;28;20844;-51
2024/01/21 03:47:31;;;;;;;4.23;3.33;;;;;;;;;;5060613;28;20433;-50
2024/01/21 03:49:58;;;;;;;3.20;2.90;;;;;;;;;;5059376;28;20840;-49
2024/01/21 03:52:24;;;;;;;3.80;3.07;;;;;;;;;;5060350;28;20440;-49
2024/01/21 03:54:50;;;;;;;3.47;3.10;;;;;;;;;;5058749;28;20524;-49
2024/01/21 03:57:16;;;;;;;4.23;3.00;;;;;;;;;;5060527;28;20204;-50
2024/01/21 03:59:43;;;;;;;3.97;3.20;;;;;;;;;;5060266;28;20991;-50
2024/01/21 04:02:09;;;;;;;3.73;2.97;;;;;;;;;;5060359;28;20203;-50
2024/01/21 04:04:34;;;;;;;3.67;3.10;;;;;;;;;;5060136;28;20515;-49
2024/01/21 04:07:02;;;;;;;4.60;3.13;;;;;;;;;;5060384;28;20212;-49
2024/01/21 04:09:28;;;;;;;3.33;3.03;;;;;;;;;;5060151;28;20242;-49
2024/01/21 04:11:54;;;;;;;3.97;3.20;;;;;;;;;;5058099;28;20948;-49
2024/01/21 04:14:20;;;;;;;3.20;2.90;;;;;;;;;;5060003;28;20781;-50
2024/01/21 04:16:46;;;;;;;3.03;2.67;;;;;;;;;;5059981;28;20732;-49
2024/01/21 04:19:12;;;;;;;3.47;2.83;;;;;;;;;;5060037;28;20323;-49
2024/01/21 04:21:38;;;;;;;4.33;3.07;;;;;;;;;;5059694;28;20191;-50
2024/01/21 04:24:06;;;;;;;4.27;3.27;;;;;;;;;;5059882;28;20442;-49
2024/01/21 04:26:32;;;;;;;3.57;3.17;;;;;;;;;;5059988;28;20214;-50
2024/01/21 04:28:58;;;;;;;3.00;2.70;;;;;;;;;;5059801;28;20434;-51
2024/01/21 04:31:24;;;;;;;3.87;3.00;;;;;;;;;;5058077;28;21028;-49
2024/01/21 04:33:50;;;;;;;5.70;3.00;;;;;;;;;;5059543;28;20199;-50
2024/01/21 04:36:20;;;;;;;3.17;2.87;;;;;;;;;;5059746;28;20578;-49
2024/01/21 04:38:46;;;;;;;4.97;3.10;;;;;;;;;;5059483;28;20275;-50
2024/01/21 04:41:13;;;;;;;4.03;2.83;;;;;;;;;;5059608;28;20433;-49
2024/01/21 04:43:40;;;;;;;2.70;2.40;;;;;;;;;;5059304;28;20466;-50
2024/01/21 04:46:06;;;;;;;4.47;2.77;;;;;;;;;;5059447;28;20434;-49
2024/01/21 04:48:32;;;;;;;3.50;2.97;;;;;;;;;;5059480;28;20445;-49
2024/01/21 04:50:58;;;;;;;3.17;2.50;;;;;;;;;;5057648;28;20847;-50
2024/01/21 04:53:24;;;;;;;3.10;2.53;;;;;;;;;;5059427;28;20200;-49
2024/01/21 04:55:50;;;;;;;4.00;2.83;;;;;;;;;;5059099;28;20290;-50
2024/01/21 04:58:17;;;;;;;3.07;2.53;;;;;;;;;;5059308;28;20202;-49
2024/01/21 05:00:43;;;;;;;2.80;2.50;;;;;;;;;;5059107;28;20231;-50
2024/01/21 05:03:09;;;;;;;2.93;2.60;;;;;;;;;;5062493;28;20460;-50
2024/01/21 05:05:35;;;;;;;3.17;2.50;;;;;;;;;;5072563;28;20210;-49
2024/01/21 05:08:01;;;;;;;2.97;2.43;;;;;;;;;;5072604;28;20437;-49
2024/01/21 05:10:27;;;;;;;2.93;2.57;;;;;;;;;;5072809;28;20192;-49
2024/01/21 05:12:53;;;;;;;3.33;2.70;;;;;;;;;;5072163;28;20492;-49
2024/01/21 05:15:20;;;;;;;2.87;2.40;;;;;;;;;;5072419;28;20196;-50
2024/01/21 05:17:46;;;;;;;2.50;2.30;;;;;;;;;;5072160;28;20593;-49
2024/01/21 05:20:12;;;;;;;2.90;2.60;;;;;;;;;;5072296;28;20557;-49
2024/01/21 05:22:38;;;;;;;3.77;2.47;;;;;;;;;;5072062;28;20723;-49
2024/01/21 05:25:05;;;;;;;2.90;2.43;;;;;;;;;;5072000;28;20430;-49
2024/01/21 05:27:32;;;;;;;4.43;2.80;;;;;;;;;;5072217;28;20199;-49
2024/01/21 05:29:58;;;;;;;3.37;2.43;;;;;;;;;;5072100;28;20438;-50
2024/01/21 05:32:25;;;;;;;3.93;2.50;;;;;;;;;;5072060;28;20441;-50
2024/01/21 05:34:51;;;;;;;2.90;2.50;;;;;;;;;;5071879;28;20207;-50
2024/01/21 05:37:17;;;;;;;2.57;2.20;;;;;;;;;;5071970;28;20810;-50
2024/01/21 05:39:43;;;;;;;2.77;2.50;;;;;;;;;;5071932;28;20234;-50
2024/01/21 05:42:09;;;;;;;2.57;2.30;;;;;;;;;;5071779;28;20438;-50
2024/01/21 05:44:35;;;;;;;2.83;2.53;;;;;;;;;;5071837;28;20195;-50
2024/01/21 05:47:01;;;;;;;2.43;2.20;;;;;;;;;;5071768;28;20226;-50
2024/01/21 05:49:29;;;;;;;2.50;2.30;;;;;;;;;;5071852;28;20430;-50
2024/01/21 05:51:55;;;;;;;2.73;2.53;;;;;;;;;;5071596;28;20445;-51
2024/01/21 05:54:21;;;;;;;2.73;2.23;;;;;;;;;;5071679;28;20452;-50
2024/01/21 05:56:47;;;;;;;3.17;2.13;;;;;;;;;;5071684;28;20602;-50
2024/01/21 05:59:16;;;;;;;2.70;2.33;;;;;;;;;;5071852;28;20485;-51
2024/01/21 06:01:42;;;;;;;3.07;2.27;;;;;;;;;;5071652;28;20270;-50
2024/01/21 06:04:08;;;;;;;2.43;2.23;;;;;;;;;;5071613;28;20990;-50
2024/01/21 06:06:35;;;;;;;2.93;2.40;;;;;;;;;;5071500;28;20200;-50
2024/01/21 06:09:01;;;;;;;2.50;2.30;;;;;;;;;;5071415;28;20257;-50
2024/01/21 06:11:28;;;;;;;3.70;2.40;;;;;;;;;;5071576;28;20931;-50
2024/01/21 06:13:54;;;;;;;3.10;2.40;;;;;;;;;;5070667;28;20528;-50
2024/01/21 06:16:20;;;;;;;3.40;2.50;;;;;;;;;;5071458;28;20437;-51
2024/01/21 06:18:46;;;;;;;2.70;2.20;;;;;;;;;;5071308;28;20231;-50
2024/01/21 06:21:16;;;;;;;2.50;2.30;;;;;;;;;;5071395;28;20688;-51
2024/01/21 06:23:43;;;;;;;2.10;2.00;;;;;;;;;;5071370;28;20275;-50
2024/01/21 06:26:15;;;;;;;2.67;2.27;;;;;;;;;;5061032;28;20441;-50
2024/01/21 06:28:41;;;;;;;2.40;2.20;;;;;;;;;;5057786;28;20487;-50
2024/01/21 06:31:07;;;;;;;4.40;2.20;;;;;;;;;;5056059;28;20452;-50
2024/01/21 06:33:33;;;;;;;2.83;2.50;;;;;;;;;;5057758;28;20979;-50
2024/01/21 06:35:59;;;;;;;2.73;2.53;;;;;;;;;;5057718;28;20195;-50
2024/01/21 06:38:25;;;;;;;2.63;2.43;;;;;;;;;;5057929;28;20440;-50
2024/01/21 06:40:52;;;;;;;3.70;2.33;;;;;;;;;;5057440;28;20568;-51
2024/01/21 06:43:18;;;;;;;2.80;2.50;;;;;;;;;;5057752;28;20207;-50
2024/01/21 06:45:44;;;;;;;2.87;2.20;;;;;;;;;;5055943;28;20446;-51
2024/01/21 06:48:10;;;;;;;2.90;2.53;;;;;;;;;;5057483;28;20441;-50
2024/01/21 06:50:36;;;;;;;2.37;2.17;;;;;;;;;;5057529;28;20198;-50
2024/01/21 06:53:03;;;;;;;2.87;2.50;;;;;;;;;;5057469;28;20695;-50
2024/01/21 06:55:29;;;;;;;2.70;2.50;;;;;;;;;;5057672;28;20676;-50
2024/01/21 06:57:56;;;;;;;2.60;2.40;;;;;;;;;;5057378;28;20438;-51
2024/01/21 07:00:22;;;;;;;2.77;2.40;;;;;;;;;;5057386;28;20844;-50
2024/01/21 07:02:48;;;;;;;4.07;2.60;;;;;;;;;;5059104;28;20430;-50
2024/01/21 07:05:14;;;;;;;4.47;2.73;;;;;;;;;;5057364;28;20503;-50
2024/01/21 07:07:40;;;;;;;3.43;2.37;;;;;;;;;;5057329;28;20200;-50
2024/01/21 07:10:07;;;;;;;2.60;2.40;;;;;;;;;;5057216;28;20460;-50
2024/01/21 07:12:33;;;;;;;2.63;2.40;;;;;;;;;;5057328;28;20469;-50
2024/01/21 07:15:00;;;;;;;3.27;2.47;;;;;;;;;;5057450;28;20441;-50
2024/01/21 07:17:26;;;;;;;2.80;2.50;;;;;;;;;;5057367;28;20585;-50
2024/01/21 07:19:53;;;;;;;3.03;2.57;;;;;;;;;;5057062;28;20490;-50
2024/01/21 07:22:19;;;;;;;4.80;2.77;;;;;;;;;;5057256;28;20666;-50
2024/01/21 07:24:45;;;;;;;2.90;2.60;;;;;;;;;;5057292;28;20449;-50
2024/01/21 07:27:12;;;;;;;2.50;2.30;;;;;;;;;;5060791;28;20433;-50
2024/01/21 07:29:38;;;;;;;3.20;2.80;;;;;;;;;;5061127;28;20436;-51
2024/01/21 07:32:06;;;;;;;3.47;3.00;;;;;;;;;;5060524;28;20516;-50
2024/01/21 07:34:32;;;;;;;3.30;2.77;;;;;;;;;;5060745;28;20223;-50
2024/01/21 07:36:58;;;;;;;3.30;2.50;;;;;;;;;;5060312;28;20440;-50
2024/01/21 07:39:24;;;;;;;3.50;2.90;;;;;;;;;;5059837;28;20580;-50
2024/01/21 07:41:50;;;;;;;3.50;2.77;;;;;;;;;;5059498;28;20199;-50
2024/01/21 07:44:16;;;;;;;3.00;2.70;;;;;;;;;;5060735;28;20191;-50
2024/01/21 07:46:42;;;;;;;3.03;2.70;;;;;;;;;;5060556;28;20449;-49
2024/01/21 07:49:10;;;;;;;3.47;3.00;;;;;;;;;;5060313;28;20207;-49
2024/01/21 07:51:36;;;;;;;3.17;2.70;;;;;;;;;;5060340;28;20454;-50
2024/01/21 07:54:02;;;;;;;3.03;2.73;;;;;;;;;;5060411;28;20503;-50
2024/01/21 07:56:28;;;;;;;2.80;2.60;;;;;;;;;;5060506;28;20561;-50
2024/01/21 07:58:54;;;;;;;2.90;2.43;;;;;;;;;;5058463;28;21406;-50
2024/01/21 08:01:21;;;;;;;3.00;2.70;;;;;;;;;;5060238;28;20436;-49
2024/01/21 08:03:47;;;;;;;4.20;2.70;;;;;;;;;;5060296;28;20225;-49
2024/01/21 08:06:14;;;;;;;5.07;2.50;;;;;;;;;;5061802;28;20803;-49
2024/01/21 08:08:41;;;;;;;3.50;2.70;;;;;;;;;;5059874;28;20472;-50
2024/01/21 08:11:07;;;;;;;3.57;2.80;;;;;;;;;;5059891;28;20488;-49
2024/01/21 08:13:33;;;;;;;2.90;2.60;;;;;;;;;;5059796;28;20527;-49
2024/01/21 08:15:59;;;;;;;3.20;2.90;;;;;;;;;;5059882;28;20442;-51
2024/01/21 08:18:25;;;;;;;3.13;2.77;;;;;;;;;;5059741;28;20314;-50
2024/01/21 08:20:51;;;;;;;3.27;2.73;;;;;;;;;;5058157;28;20273;-51
2024/01/21 08:23:19;;;;;;;3.17;2.87;;;;;;;;;;5059823;28;20860;-50
2024/01/21 08:25:45;;;;;;;3.50;2.60;;;;;;;;;;5059964;28;20442;-50
2024/01/21 08:28:11;;;;;;;4.60;3.20;;;;;;;;;;5059650;28;20469;-50
2024/01/21 08:30:37;;;;;;;4.17;3.13;;;;;;;;;;5059670;28;20461;-49
2024/01/21 08:33:03;;;;;;;5.73;4.43;;;;;;;;;;5059655;28;20293;-49
2024/01/21 08:35:30;;;;;;;5.67;4.37;;;;;;;;;;5059793;28;20199;-49
2024/01/21 08:37:56;;;;;;;5.57;3.73;;;;;;;;;;5058972;28;20430;-50
2024/01/21 08:40:23;;;;;;;4.33;3.17;;;;;;;;;;5059442;28;20486;-49
2024/01/21 08:42:49;;;;;;;6.23;3.17;;;;;;;;;;5059357;28;20943;-49
2024/01/21 08:45:15;;;;;;;4.57;3.50;;;;;;;;;;5059471;28;20983;-49
2024/01/21 08:47:41;;;;;;;4.07;3.60;;;;;;;;;;5059528;28;20613;-49
2024/01/21 08:50:08;;;;;;;3.80;3.00;;;;;;;;;;5059350;28;20434;-49
2024/01/21 08:52:34;;;;;;;3.40;2.87;;;;;;;;;;5059264;28;20199;-50
2024/01/21 08:55:00;;;;;;;4.37;3.20;;;;;;;;;;5059254;28;20825;-49
2024/01/21 08:57:27;;;;;;;6.20;4.10;;;;;;;;;;5057607;28;20244;-50
2024/01/21 08:59:53;;;;;;;7.13;4.60;;;;;;;;;;5058982;28;20588;-50
2024/01/21 09:02:19;;;;;;;4.10;3.33;;;;;;;;;;5059054;28;20429;-50
2024/01/21 09:04:45;;;;;;;4.00;3.60;;;;;;;;;;5059211;28;20188;-49
2024/01/21 09:07:11;;;;;;;4.00;3.50;;;;;;;;;;5058820;28;20200;-49
2024/01/21 09:09:37;;;;;;;4.00;3.60;;;;;;;;;;5057175;28;20444;-50
2024/01/21 09:12:03;;;;;;;4.17;3.30;;;;;;;;;;5058498;28;20231;-49
2024/01/21 09:14:31;;;;;;;4.87;3.63;;;;;;;;;;5058952;28;20529;-49
2024/01/21 09:16:57;;;;;;;4.33;3.30;;;;;;;;;;5058685;28;20454;-50
2024/01/21 09:19:23;;;;;;;4.30;3.77;;;;;;;;;;5058549;28;20835;-50
2024/01/21 09:21:49;;;;;;;4.67;3.57;;;;;;;;;;5058534;28;20192;-50
2024/01/21 09:24:16;;;;;;;4.17;3.63;;;;;;;;;;5058659;28;20924;-49
2024/01/21 09:26:42;;;;;;;4.13;3.40;;;;;;;;;;5058531;28;20191;-50
2024/01/21 09:29:09;;;;;;;4.30;3.40;;;;;;;;;;5060053;28;20665;-50
2024/01/21 09:31:36;;;;;;;4.30;3.73;;;;;;;;;;5058439;28;20540;-50
2024/01/21 09:34:03;;;;;;;7.87;3.80;;;;;;;;;;5058353;28;20500;-50
2024/01/21 09:36:29;;;;;;;4.60;3.60;;;;;;;;;;5058426;28;20430;-50
2024/01/21 09:38:55;;;;;;;5.23;3.77;;;;;;;;;;5058223;28;20438;-51
2024/01/21 09:41:26;;;;;;;4.43;4.03;;;;;;;;;;5058297;28;21296;-51
2024/01/21 09:43:52;;;;;;;5.67;5.03;;;;;;;;;;5058237;28;20674;-50
2024/01/21 09:46:18;;;;;;;4.63;3.53;;;;;;;;;;5058310;28;20440;-51
2024/01/21 09:48:46;;;;;;;5.20;3.80;;;;;;;;;;5057663;28;20196;-51
2024/01/21 09:51:12;;;;;;;4.27;3.80;;;;;;;;;;5058017;28;20452;-51
2024/01/21 09:53:38;;;;;;;4.63;3.83;;;;;;;;;;5058173;28;20495;-51
2024/01/21 09:56:06;;;;;;;5.03;4.00;;;;;;;;;;5057248;28;20436;-50
2024/01/21 09:58:33;;;;;;;5.67;4.17;;;;;;;;;;5058203;28;20438;-50
2024/01/21 10:00:59;;;;;;;5.40;4.10;;;;;;;;;;5058162;28;20511;-50
2024/01/21 10:03:26;;;;;;;6.20;4.27;;;;;;;;;;5058338;28;20486;-51
2024/01/21 10:05:53;;;;;;;5.43;4.17;;;;;;;;;;5058399;28;20462;-50
2024/01/21 10:08:19;;;;;;;4.73;3.90;;;;;;;;;;5057795;28;20446;-49
2024/01/21 10:10:45;;;;;;;4.17;3.77;;;;;;;;;;5058377;28;20786;-49
2024/01/21 10:13:11;;;;;;;4.93;3.90;;;;;;;;;;5057744;28;20900;-50
2024/01/21 10:15:37;;;;;;;4.20;3.50;;;;;;;;;;5056133;28;20465;-50
2024/01/21 10:18:03;;;;;;;5.60;4.00;;;;;;;;;;5057662;28;20215;-50
2024/01/21 10:20:29;;;;;;;5.57;3.83;;;;;;;;;;5058130;28;20239;-50
2024/01/21 10:23:08;;;;;;;4.97;4.00;;;;;;;;;;5057951;28;20446;-49
2024/01/21 10:25:34;;;;;;;4.23;3.67;;;;;;;;;;5057761;28;20503;-49
2024/01/21 10:28:00;;;;;;;4.00;3.60;;;;;;;;;;5057749;28;20438;-51
2024/01/21 10:30:26;;;;;;;6.07;4.10;;;;;;;;;;5057684;28;20194;-48
2024/01/21 10:32:52;;;;;;;4.60;3.90;;;;;;;;;;5055878;28;20525;-51
2024/01/21 10:35:18;;;;;;;5.50;4.13;;;;;;;;;;5059271;28;21004;-51
2024/01/21 10:37:44;;;;;;;5.93;4.50;;;;;;;;;;5055977;28;20207;-50
2024/01/21 10:40:12;;;;;;;4.70;3.93;;;;;;;;;;5057530;28;20230;-50
2024/01/21 10:42:40;;;;;;;4.73;3.83;;;;;;;;;;5057316;28;20215;-50
2024/01/21 10:45:06;;;;;;;5.23;4.23;;;;;;;;;;5057353;28;21003;-50
2024/01/21 10:47:32;;;;;;;4.33;3.73;;;;;;;;;;5057637;28;20442;-50
2024/01/21 10:49:59;;;;;;;4.50;3.53;;;;;;;;;;5057468;28;20532;-50
2024/01/21 10:52:25;;;;;;;4.27;3.67;;;;;;;;;;5055519;28;20434;-49
2024/01/21 10:54:51;;;;;;;5.70;3.80;;;;;;;;;;5057424;28;20446;-49
2024/01/21 10:57:19;;;;;;;4.70;3.53;;;;;;;;;;5057330;28;20495;-49
2024/01/21 10:59:45;;;;;;;4.80;3.80;;;;;;;;;;5058994;28;20488;-49
2024/01/21 11:02:12;;;;;;;4.83;3.87;;;;;;;;;;5061357;28;20492;-49
2024/01/21 11:04:38;;;;;;;4.97;4.03;;;;;;;;;;5061359;28;20750;-49
2024/01/21 11:07:05;;;;;;;4.70;4.20;;;;;;;;;;5061048;28;20462;-50
2024/01/21 11:09:33;;;;;;;5.17;4.00;;;;;;;;;;5061368;28;20429;-50
2024/01/21 11:12:02;;;;;;;12.00;3.93;;;;;;;;;;5059426;28;20414;-49
2024/01/21 11:14:30;;;;;;;5.50;3.90;;;;;;;;;;5061403;28;20441;-50
2024/01/21 11:16:56;;;;;;;5.47;3.77;;;;;;;;;;5059422;28;20490;-49
2024/01/21 11:19:24;;;;;;;5.53;4.03;;;;;;;;;;5060825;28;20452;-49
2024/01/21 11:21:54;;;;;;;4.10;3.70;;;;;;;;;;5060905;28;21022;-49
2024/01/21 11:24:20;;;;;;;7.53;4.57;;;;;;;;;;5060801;28;20548;-49
2024/01/21 11:26:47;;;;;;;4.90;3.87;;;;;;;;;;5060963;28;20513;-49
2024/01/21 11:29:31;;;;;;;4.20;3.80;;;;;;;;;;5060689;28;20203;-50
2024/01/21 11:32:00;;;;;;;4.43;3.90;;;;;;;;;;5059566;28;20440;-50
2024/01/21 11:34:28;;;;;;;4.57;4.07;;;;;;;;;;5060665;28;20887;-50
2024/01/21 11:36:54;;;;;;;5.67;4.27;;;;;;;;;;5060596;28;20458;-49
2024/01/21 11:39:21;;;;;;;5.63;4.33;;;;;;;;;;5060409;28;20531;-49
2024/01/21 11:41:48;;;;;;;4.67;4.17;;;;;;;;;;5064020;28;20211;-50
2024/01/21 11:44:14;;;;;;;5.00;3.97;;;;;;;;;;5074196;28;20495;-50
2024/01/21 11:46:41;;;;;;;4.83;3.93;;;;;;;;;;5074177;28;20438;-50
2024/01/21 11:49:09;;;;;;;4.20;3.80;;;;;;;;;;5074021;28;20525;-50
2024/01/21 11:51:35;;;;;;;5.50;4.60;;;;;;;;;;5073962;28;20487;-50
2024/01/21 11:54:01;;;;;;;4.23;3.83;;;;;;;;;;5074025;28;20517;-50
2024/01/21 11:56:27;;;;;;;5.43;4.17;;;;;;;;;;5074201;28;21015;-50
2024/01/21 11:58:53;;;;;;;5.07;4.20;;;;;;;;;;5073874;28;20210;-50
2024/01/21 12:01:23;;;;;;;5.07;4.17;;;;;;;;;;5073585;28;20501;-49
2024/01/21 12:03:49;;;;;;;5.13;3.87;;;;;;;;;;5073650;28;20847;-50
2024/01/21 12:06:17;;;;;;;5.73;4.17;;;;;;;;;;5074088;28;20430;-49
2024/01/21 12:08:44;;;;;;;6.00;4.20;;;;;;;;;;5073755;28;20701;-50
2024/01/21 12:11:10;;;;;;;5.27;3.80;;;;;;;;;;5072690;28;20438;-50
2024/01/21 12:13:39;;;;;;;4.30;3.40;;;;;;;;;;5073533;28;20470;-50
2024/01/21 12:16:06;;;;;;;4.63;3.80;;;;;;;;;;5073582;28;20282;-50
2024/01/21 12:18:32;;;;;;;4.73;3.73;;;;;;;;;;5073527;28;20971;-50
2024/01/21 12:20:58;;;;;;;3.97;3.57;;;;;;;;;;5073600;28;20465;-51
2024/01/21 12:23:25;;;;;;;4.33;3.67;;;;;;;;;;5073412;28;20211;-51
2024/01/21 12:25:51;;;;;;;3.93;3.53;;;;;;;;;;5073511;28;20305;-51
2024/01/21 12:28:17;;;;;;;3.83;3.40;;;;;;;;;;5073290;28;20520;-52
2024/01/21 12:30:43;;;;;;;7.00;3.60;;;;;;;;;;5073427;28;20438;-52
2024/01/21 12:33:10;;;;;;;3.80;3.33;;;;;;;;;;5073502;28;20563;-52
2024/01/21 12:35:36;;;;;;;4.20;3.27;;;;;;;;;;5073132;28;20474;-51
2024/01/21 12:38:02;;;;;;;4.20;3.60;;;;;;;;;;5073344;28;20430;-51
2024/01/21 12:40:32;;;;;;;4.70;3.70;;;;;;;;;;5073131;28;20458;-50
2024/01/21 12:42:58;;;;;;;7.70;4.30;;;;;;;;;;5073180;28;20555;-51
2024/01/21 12:45:25;;;;;;;5.60;3.70;;;;;;;;;;5072867;28;20476;-50
2024/01/21 12:47:51;;;;;;;8.67;3.77;;;;;;;;;;5073001;28;20202;-50
2024/01/21 12:50:18;;;;;;;7.20;4.60;;;;;;;;;;5072924;28;20458;-50
2024/01/21 12:52:44;;;;;;;6.20;4.40;;;;;;;;;;5072861;28;20877;-51
2024/01/21 12:55:10;;;;;;;5.87;4.27;;;;;;;;;;5072706;28;20524;-50
2024/01/21 12:57:37;;;;;;;5.73;3.80;;;;;;;;;;5072738;28;20202;-51
2024/01/21 13:00:04;;;;;;;4.20;3.80;;;;;;;;;;5072491;28;20474;-50
2024/01/21 13:02:30;;;;;;;6.87;4.30;;;;;;;;;;5072793;28;20449;-50
2024/01/21 13:04:56;;;;;;;5.70;4.60;;;;;;;;;;5072570;28;20950;-49
2024/01/21 13:07:22;;;;;;;5.83;4.50;;;;;;;;;;5072431;28;20524;-51
2024/01/21 13:09:48;;;;;;;8.73;4.80;;;;;;;;;;5072343;28;20650;-50
2024/01/21 13:12:14;;;;;;;5.63;4.47;;;;;;;;;;5072268;28;20474;-51
2024/01/21 13:14:42;;;;;;;5.00;4.17;;;;;;;;;;5072544;28;20861;-50
2024/01/21 13:17:08;;;;;;;4.70;4.00;;;;;;;;;;5072206;28;20902;-51
2024/01/21 13:19:34;;;;;;;5.67;4.47;;;;;;;;;;5072236;28;20442;-49
2024/01/21 13:22:05;;;;;;;5.20;4.70;;;;;;;;;;5072610;28;20195;-50
2024/01/21 13:24:31;;;;;;;4.87;4.03;;;;;;;;;;5072282;28;20199;-50
2024/01/21 13:27:02;;;;;;;4.97;4.23;;;;;;;;;;5072274;28;20477;-50
2024/01/21 13:32:14;;;;;;;7.77;4.83;;;;;;;;;;5072276;28;20421;-50
2024/01/21 13:34:40;;;;;;;5.80;4.80;;;;;;;;;;5072431;28;20441;-50
2024/01/21 13:37:12;;;;;;;5.93;4.47;;;;;;;;;;5071809;28;20529;-50
2024/01/21 13:39:38;;;;;;;4.37;3.97;;;;;;;;;;5071869;28;20434;-52
2024/01/21 13:42:04;;;;;;;10.47;7.33;;;;;;;;;;5070096;28;20500;-51
2024/01/21 13:44:31;;;;;;;6.60;5.03;;;;;;;;;;5071930;28;20241;-50
2024/01/21 13:46:57;;;;;;;5.97;4.97;;;;;;;;;;5071939;28;20433;-50
2024/01/21 13:49:25;;;;;;;6.00;4.67;;;;;;;;;;5071695;28;20438;-52
2024/01/21 13:51:52;;;;;;;5.93;4.57;;;;;;;;;;5071600;28;20801;-50
2024/01/21 13:54:18;;;;;;;6.13;4.77;;;;;;;;;;5071588;28;20442;-50
2024/01/21 13:56:45;;;;;;;6.20;4.27;;;;;;;;;;5071932;28;20499;-51
2024/01/21 13:59:11;;;;;;;6.23;5.07;;;;;;;;;;5071637;28;20517;-50
2024/01/21 14:01:37;;;;;;;6.33;4.70;;;;;;;;;;5071464;28;20576;-51
2024/01/21 14:04:03;;;;;;;5.73;4.60;;;;;;;;;;5071604;28;20199;-51
2024/01/21 14:06:30;;;;;;;6.17;4.63;;;;;;;;;;5071591;28;20195;-50
2024/01/21 14:08:56;;;;;;;5.57;4.73;;;;;;;;;;5071598;28;20453;-50
2024/01/21 14:11:22;;;;;;;6.53;4.47;;;;;;;;;;5071449;28;20440;-51
2024/01/21 14:13:48;;;;;;;6.17;4.83;;;;;;;;;;5071219;28;20947;-50
2024/01/21 14:16:14;;;;;;;5.83;4.70;;;;;;;;;;5071534;28;20437;-51
2024/01/21 14:18:40;;;;;;;6.73;4.63;;;;;;;;;;5071560;28;20248;-51
2024/01/21 14:21:06;;;;;;;6.40;5.33;;;;;;;;;;5066131;28;20482;-50
2024/01/21 14:23:34;;;;;;;5.93;5.10;;;;;;;;;;5057582;28;20242;-51
2024/01/21 14:26:06;;;;;;;6.63;5.43;;;;;;;;;;5057713;28;20492;-51
2024/01/21 14:28:37;;;;;;;6.43;5.17;;;;;;;;;;5057420;28;20964;-51
2024/01/21 14:31:04;;;;;;;6.50;5.30;;;;;;;;;;5057418;28;20496;-50
2024/01/21 14:33:31;;;;;;;5.80;5.20;;;;;;;;;;5056260;28;20442;-49
2024/01/21 14:35:57;;;;;;;6.00;4.90;;;;;;;;;;5064074;28;20495;-50
2024/01/21 14:38:23;;;;;;;6.67;5.00;;;;;;;;;;5064127;28;20642;-50
2024/01/21 14:40:50;;;;;;;8.13;5.40;;;;;;;;;;5064207;28;20473;-50